Aviation Digital Data Service (ADDS)

Output produced by METARs form (0024 UTC 20 April 2019)
found at http://www.aviationweather.gov/metar/data/
 
METAR text: SBKP 200000Z 17004KT CAVOK 22/11 Q1017
Conditions at: SBKP (CAMPINAS/VIRACOP, BR) observed 0000 UTC 20 April 2019
Temperature: 22.0°C (72°F)
Dewpoint: 11.0°C (52°F) [RH = 50%]
Pressure (altimeter): 30.03 inches Hg (1017.0 mb)
Winds: from the S (170 degrees) at 5 MPH (4 knots; 2.1 m/s)
Visibility: 6 or more miles (10+ km)
Ceiling: ceiling and visibility are OK
Clouds: unknown
Weather: no significant weather observed at this time

METAR text: SBKP 192300Z 19004KT CAVOK 23/11 Q1016
Conditions at: SBKP (CAMPINAS/VIRACOP, BR) observed 2300 UTC 19 April 2019
Temperature: 23.0°C (73°F)
Dewpoint: 11.0°C (52°F) [RH = 47%]
Pressure (altimeter): 30.00 inches Hg (1016.0 mb)
Winds: from the S (190 degrees) at 5 MPH (4 knots; 2.1 m/s)
Visibility: 6 or more miles (10+ km)
Ceiling: ceiling and visibility are OK
Clouds: unknown
Weather: no significant weather observed at this time

METAR text: SBKP 192200Z 25005KT CAVOK 23/10 Q1015
Conditions at: SBKP (CAMPINAS/VIRACOP, BR) observed 2200 UTC 19 April 2019
Temperature: 23.0°C (73°F)
Dewpoint: 10.0°C (50°F) [RH = 44%]
Pressure (altimeter): 29.97 inches Hg (1015.0 mb)
Winds: from the WSW (250 degrees) at 6 MPH (5 knots; 2.6 m/s)
Visibility: 6 or more miles (10+ km)
Ceiling: ceiling and visibility are OK
Clouds: unknown
Weather: no significant weather observed at this time

METAR text: SBKP 192100Z 26004KT CAVOK 24/11 Q1015
Conditions at: SBKP (CAMPINAS/VIRACOP, BR) observed 2100 UTC 19 April 2019
Temperature: 24.0°C (75°F)
Dewpoint: 11.0°C (52°F) [RH = 44%]
Pressure (altimeter): 29.97 inches Hg (1015.0 mb)
Winds: from the W (260 degrees) at 5 MPH (4 knots; 2.1 m/s)
Visibility: 6 or more miles (10+ km)
Ceiling: ceiling and visibility are OK
Clouds: unknown
Weather: no significant weather observed at this time

METAR text: SBKP 192000Z 26006KT CAVOK 26/09 Q1015
Conditions at: SBKP (CAMPINAS/VIRACOP, BR) observed 2000 UTC 19 April 2019
Temperature: 26.0°C (79°F)
Dewpoint: 9.0°C (48°F) [RH = 34%]
Pressure (altimeter): 29.97 inches Hg (1015.0 mb)
Winds: from the W (260 degrees) at 7 MPH (6 knots; 3.1 m/s)
Visibility: 6 or more miles (10+ km)
Ceiling: ceiling and visibility are OK
Clouds: unknown
Weather: no significant weather observed at this time

METAR text: SBKP 191900Z 30005KT 230V340 CAVOK 26/09 Q1015
Conditions at: SBKP (CAMPINAS/VIRACOP, BR) observed 1900 UTC 19 April 2019
Temperature: 26.0°C (79°F)
Dewpoint: 9.0°C (48°F) [RH = 34%]
Pressure (altimeter): 29.97 inches Hg (1015.0 mb)
Winds: from the WNW (300 degrees) at 6 MPH (5 knots; 2.6 m/s)
Visibility: 6 or more miles (10+ km)
Ceiling: ceiling and visibility are OK
Clouds: unknown
Weather: no significant weather observed at this time

METAR text: SBKP 191800Z 24005KT CAVOK 27/10 Q1015
Conditions at: SBKP (CAMPINAS/VIRACOP, BR) observed 1800 UTC 19 April 2019
Temperature: 27.0°C (81°F)
Dewpoint: 10.0°C (50°F) [RH = 34%]
Pressure (altimeter): 29.97 inches Hg (1015.0 mb)
Winds: from the WSW (240 degrees) at 6 MPH (5 knots; 2.6 m/s)
Visibility: 6 or more miles (10+ km)
Ceiling: ceiling and visibility are OK
Clouds: unknown
Weather: no significant weather observed at this time

METAR text: SBKP 191700Z 27005KT CAVOK 26/09 Q1015
Conditions at: SBKP (CAMPINAS/VIRACOP, BR) observed 1700 UTC 19 April 2019
Temperature: 26.0°C (79°F)
Dewpoint: 9.0°C (48°F) [RH = 34%]
Pressure (altimeter): 29.97 inches Hg (1015.0 mb)
Winds: from the W (270 degrees) at 6 MPH (5 knots; 2.6 m/s)
Visibility: 6 or more miles (10+ km)
Ceiling: ceiling and visibility are OK
Clouds: unknown
Weather: no significant weather observed at this time

METAR text: SBKP 191600Z 28005KT CAVOK 26/09 Q1016
Conditions at: SBKP (CAMPINAS/VIRACOP, BR) observed 1600 UTC 19 April 2019
Temperature: 26.0°C (79°F)
Dewpoint: 9.0°C (48°F) [RH = 34%]
Pressure (altimeter): 30.00 inches Hg (1016.0 mb)
Winds: from the W (280 degrees) at 6 MPH (5 knots; 2.6 m/s)
Visibility: 6 or more miles (10+ km)
Ceiling: ceiling and visibility are OK
Clouds: unknown
Weather: no significant weather observed at this time

METAR text: SBKP 191500Z 25007KT CAVOK 25/11 Q1017
Conditions at: SBKP (CAMPINAS/VIRACOP, BR) observed 1500 UTC 19 April 2019
Temperature: 25.0°C (77°F)
Dewpoint: 11.0°C (52°F) [RH = 41%]
Pressure (altimeter): 30.03 inches Hg (1017.0 mb)
Winds: from the WSW (250 degrees) at 8 MPH (7 knots; 3.6 m/s)
Visibility: 6 or more miles (10+ km)
Ceiling: ceiling and visibility are OK
Clouds: unknown
Weather: no significant weather observed at this time

METAR text: SBKP 191400Z 20005KT CAVOK 24/11 Q1018
Conditions at: SBKP (CAMPINAS/VIRACOP, BR) observed 1400 UTC 19 April 2019
Temperature: 24.0°C (75°F)
Dewpoint: 11.0°C (52°F) [RH = 44%]
Pressure (altimeter): 30.06 inches Hg (1018.0 mb)
Winds: from the SSW (200 degrees) at 6 MPH (5 knots; 2.6 m/s)
Visibility: 6 or more miles (10+ km)
Ceiling: ceiling and visibility are OK
Clouds: unknown
Weather: no significant weather observed at this time

METAR text: SBKP 191300Z 15005KT CAVOK 22/15 Q1018
Conditions at: SBKP (CAMPINAS/VIRACOP, BR) observed 1300 UTC 19 April 2019
Temperature: 22.0°C (72°F)
Dewpoint: 15.0°C (59°F) [RH = 65%]
Pressure (altimeter): 30.06 inches Hg (1018.0 mb)
Winds: from the SSE (150 degrees) at 6 MPH (5 knots; 2.6 m/s)
Visibility: 6 or more miles (10+ km)
Ceiling: ceiling and visibility are OK
Clouds: unknown
Weather: no significant weather observed at this time

METAR text: SBKP 191200Z 15006KT CAVOK 20/15 Q1018
Conditions at: SBKP (CAMPINAS/VIRACOP, BR) observed 1200 UTC 19 April 2019
Temperature: 20.0°C (68°F)
Dewpoint: 15.0°C (59°F) [RH = 73%]
Pressure (altimeter): 30.06 inches Hg (1018.0 mb)
Winds: from the SSE (150 degrees) at 7 MPH (6 knots; 3.1 m/s)
Visibility: 6 or more miles (10+ km)
Ceiling: ceiling and visibility are OK
Clouds: unknown
Weather: no significant weather observed at this time

METAR text: SBKP 191100Z 08002KT 8000 NSC 19/15 Q1017
Conditions at: SBKP (CAMPINAS/VIRACOP, BR) observed 1100 UTC 19 April 2019
Temperature: 19.0°C (66°F)
Dewpoint: 15.0°C (59°F) [RH = 78%]
Pressure (altimeter): 30.03 inches Hg (1017.0 mb)
Winds: from the E (80 degrees) at 2 MPH (2 knots; 1.0 m/s)
Visibility: 5 miles ( 8 km)
Ceiling: at least 12,000 feet AGL
Clouds: sky clear below 12,000 feet AGL
Weather: no significant weather observed at this time

METAR text: SBKP 191000Z 12009KT 8000 NSC 17/15 Q1017
Conditions at: SBKP (CAMPINAS/VIRACOP, BR) observed 1000 UTC 19 April 2019
Temperature: 17.0°C (63°F)
Dewpoint: 15.0°C (59°F) [RH = 88%]
Pressure (altimeter): 30.03 inches Hg (1017.0 mb)
Winds: from the ESE (120 degrees) at 10 MPH (9 knots; 4.6 m/s)
Visibility: 5 miles ( 8 km)
Ceiling: at least 12,000 feet AGL
Clouds: sky clear below 12,000 feet AGL
Weather: no significant weather observed at this time

METAR text: SBKP 190900Z 12008KT CAVOK 16/14 Q1016
Conditions at: SBKP (CAMPINAS/VIRACOP, BR) observed 0900 UTC 19 April 2019
Temperature: 16.0°C (61°F)
Dewpoint: 14.0°C (57°F) [RH = 88%]
Pressure (altimeter): 30.00 inches Hg (1016.0 mb)
Winds: from the ESE (120 degrees) at 9 MPH (8 knots; 4.1 m/s)
Visibility: 6 or more miles (10+ km)
Ceiling: ceiling and visibility are OK
Clouds: unknown
Weather: no significant weather observed at this time

METAR text: SBKP 190800Z 12010KT CAVOK 17/15 Q1015
Conditions at: SBKP (CAMPINAS/VIRACOP, BR) observed 0800 UTC 19 April 2019
Temperature: 17.0°C (63°F)
Dewpoint: 15.0°C (59°F) [RH = 88%]
Pressure (altimeter): 29.97 inches Hg (1015.0 mb)
Winds: from the ESE (120 degrees) at 12 MPH (10 knots; 5.1 m/s)
Visibility: 6 or more miles (10+ km)
Ceiling: ceiling and visibility are OK
Clouds: unknown
Weather: no significant weather observed at this time

METAR text: SBKP 190700Z 12011KT CAVOK 17/15 Q1015
Conditions at: SBKP (CAMPINAS/VIRACOP, BR) observed 0700 UTC 19 April 2019
Temperature: 17.0°C (63°F)
Dewpoint: 15.0°C (59°F) [RH = 88%]
Pressure (altimeter): 29.97 inches Hg (1015.0 mb)
Winds: from the ESE (120 degrees) at 13 MPH (11 knots; 5.7 m/s)
Visibility: 6 or more miles (10+ km)
Ceiling: ceiling and visibility are OK
Clouds: unknown
Weather: no significant weather observed at this time

METAR text: SBKP 190600Z 12011KT CAVOK 17/15 Q1015
Conditions at: SBKP (CAMPINAS/VIRACOP, BR) observed 0600 UTC 19 April 2019
Temperature: 17.0°C (63°F)
Dewpoint: 15.0°C (59°F) [RH = 88%]
Pressure (altimeter): 29.97 inches Hg (1015.0 mb)
Winds: from the ESE (120 degrees) at 13 MPH (11 knots; 5.7 m/s)
Visibility: 6 or more miles (10+ km)
Ceiling: ceiling and visibility are OK
Clouds: unknown
Weather: no significant weather observed at this time

METAR text: SBKP 190500Z 12010KT CAVOK 18/15 Q1015
Conditions at: SBKP (CAMPINAS/VIRACOP, BR) observed 0500 UTC 19 April 2019
Temperature: 18.0°C (64°F)
Dewpoint: 15.0°C (59°F) [RH = 83%]
Pressure (altimeter): 29.97 inches Hg (1015.0 mb)
Winds: from the ESE (120 degrees) at 12 MPH (10 knots; 5.1 m/s)
Visibility: 6 or more miles (10+ km)
Ceiling: ceiling and visibility are OK
Clouds: unknown
Weather: no significant weather observed at this time

METAR text: SBKP 190400Z 12010KT CAVOK 18/16 Q1016
Conditions at: SBKP (CAMPINAS/VIRACOP, BR) observed 0400 UTC 19 April 2019
Temperature: 18.0°C (64°F)
Dewpoint: 16.0°C (61°F) [RH = 88%]
Pressure (altimeter): 30.00 inches Hg (1016.0 mb)
Winds: from the ESE (120 degrees) at 12 MPH (10 knots; 5.1 m/s)
Visibility: 6 or more miles (10+ km)
Ceiling: ceiling and visibility are OK
Clouds: unknown
Weather: no significant weather observed at this time

METAR text: SBKP 190300Z 12008KT CAVOK 19/16 Q1016
Conditions at: SBKP (CAMPINAS/VIRACOP, BR) observed 0300 UTC 19 April 2019
Temperature: 19.0°C (66°F)
Dewpoint: 16.0°C (61°F) [RH = 83%]
Pressure (altimeter): 30.00 inches Hg (1016.0 mb)
Winds: from the ESE (120 degrees) at 9 MPH (8 knots; 4.1 m/s)
Visibility: 6 or more miles (10+ km)
Ceiling: ceiling and visibility are OK
Clouds: unknown
Weather: no significant weather observed at this time

METAR text: SBKP 190200Z 12010KT CAVOK 19/16 Q1016
Conditions at: SBKP (CAMPINAS/VIRACOP, BR) observed 0200 UTC 19 April 2019
Temperature: 19.0°C (66°F)
Dewpoint: 16.0°C (61°F) [RH = 83%]
Pressure (altimeter): 30.00 inches Hg (1016.0 mb)
Winds: from the ESE (120 degrees) at 12 MPH (10 knots; 5.1 m/s)
Visibility: 6 or more miles (10+ km)
Ceiling: ceiling and visibility are OK
Clouds: unknown
Weather: no significant weather observed at this time

METAR text: SBKP 190100Z 12010KT CAVOK 20/16 Q1016
Conditions at: SBKP (CAMPINAS/VIRACOP, BR) observed 0100 UTC 19 April 2019
Temperature: 20.0°C (68°F)
Dewpoint: 16.0°C (61°F) [RH = 78%]
Pressure (altimeter): 30.00 inches Hg (1016.0 mb)
Winds: from the ESE (120 degrees) at 12 MPH (10 knots; 5.1 m/s)
Visibility: 6 or more miles (10+ km)
Ceiling: ceiling and visibility are OK
Clouds: unknown
Weather: no significant weather observed at this time

METAR text: SBKP 190000Z 12009KT CAVOK 20/15 Q1016
Conditions at: SBKP (CAMPINAS/VIRACOP, BR) observed 0000 UTC 19 April 2019
Temperature: 20.0°C (68°F)
Dewpoint: 15.0°C (59°F) [RH = 73%]
Pressure (altimeter): 30.00 inches Hg (1016.0 mb)
Winds: from the ESE (120 degrees) at 10 MPH (9 knots; 4.6 m/s)
Visibility: 6 or more miles (10+ km)
Ceiling: ceiling and visibility are OK
Clouds: unknown
Weather: no significant weather observed at this time

METAR text: SBKP 182300Z 00000KT CAVOK 23/14 Q1015
Conditions at: SBKP (CAMPINAS/VIRACOP, BR) observed 2300 UTC 18 April 2019
Temperature: 23.0°C (73°F)
Dewpoint: 14.0°C (57°F) [RH = 57%]
Pressure (altimeter): 29.97 inches Hg (1015.0 mb)
Winds: calm
Visibility: 6 or more miles (10+ km)
Ceiling: ceiling and visibility are OK
Clouds: unknown
Weather: no significant weather observed at this time

METAR text: SBKP 182200Z 22004KT CAVOK 24/13 Q1015
Conditions at: SBKP (CAMPINAS/VIRACOP, BR) observed 2200 UTC 18 April 2019
Temperature: 24.0°C (75°F)
Dewpoint: 13.0°C (55°F) [RH = 50%]
Pressure (altimeter): 29.97 inches Hg (1015.0 mb)
Winds: from the SW (220 degrees) at 5 MPH (4 knots; 2.1 m/s)
Visibility: 6 or more miles (10+ km)
Ceiling: ceiling and visibility are OK
Clouds: unknown
Weather: no significant weather observed at this time

METAR text: SBKP 182100Z 25005KT CAVOK 25/13 Q1014
Conditions at: SBKP (CAMPINAS/VIRACOP, BR) observed 2100 UTC 18 April 2019
Temperature: 25.0°C (77°F)
Dewpoint: 13.0°C (55°F) [RH = 47%]
Pressure (altimeter): 29.94 inches Hg (1014.0 mb)
Winds: from the WSW (250 degrees) at 6 MPH (5 knots; 2.6 m/s)
Visibility: 6 or more miles (10+ km)
Ceiling: ceiling and visibility are OK
Clouds: unknown
Weather: no significant weather observed at this time

METAR text: SBKP 182000Z 24005KT 150V280 CAVOK 26/13 Q1014
Conditions at: SBKP (CAMPINAS/VIRACOP, BR) observed 2000 UTC 18 April 2019
Temperature: 26.0°C (79°F)
Dewpoint: 13.0°C (55°F) [RH = 45%]
Pressure (altimeter): 29.94 inches Hg (1014.0 mb)
Winds: from the WSW (240 degrees) at 6 MPH (5 knots; 2.6 m/s)
Visibility: 6 or more miles (10+ km)
Ceiling: ceiling and visibility are OK
Clouds: unknown
Weather: no significant weather observed at this time

METAR text: SBKP 181900Z 27006KT 240V310 CAVOK 26/13 Q1014
Conditions at: SBKP (CAMPINAS/VIRACOP, BR) observed 1900 UTC 18 April 2019
Temperature: 26.0°C (79°F)
Dewpoint: 13.0°C (55°F) [RH = 45%]
Pressure (altimeter): 29.94 inches Hg (1014.0 mb)
Winds: from the W (270 degrees) at 7 MPH (6 knots; 3.1 m/s)
Visibility: 6 or more miles (10+ km)
Ceiling: ceiling and visibility are OK
Clouds: unknown
Weather: no significant weather observed at this time

METAR text: SBKP 181800Z 24007KT CAVOK 26/13 Q1014
Conditions at: SBKP (CAMPINAS/VIRACOP, BR) observed 1800 UTC 18 April 2019
Temperature: 26.0°C (79°F)
Dewpoint: 13.0°C (55°F) [RH = 45%]
Pressure (altimeter): 29.94 inches Hg (1014.0 mb)
Winds: from the WSW (240 degrees) at 8 MPH (7 knots; 3.6 m/s)
Visibility: 6 or more miles (10+ km)
Ceiling: ceiling and visibility are OK
Clouds: unknown
Weather: no significant weather observed at this time

METAR text: SBKP 181700Z 28007KT CAVOK 26/13 Q1014
Conditions at: SBKP (CAMPINAS/VIRACOP, BR) observed 1700 UTC 18 April 2019
Temperature: 26.0°C (79°F)
Dewpoint: 13.0°C (55°F) [RH = 45%]
Pressure (altimeter): 29.94 inches Hg (1014.0 mb)
Winds: from the W (280 degrees) at 8 MPH (7 knots; 3.6 m/s)
Visibility: 6 or more miles (10+ km)
Ceiling: ceiling and visibility are OK
Clouds: unknown
Weather: no significant weather observed at this time

METAR text: SBKP 181600Z 27008KT CAVOK 26/12 Q1015
Conditions at: SBKP (CAMPINAS/VIRACOP, BR) observed 1600 UTC 18 April 2019
Temperature: 26.0°C (79°F)
Dewpoint: 12.0°C (54°F) [RH = 42%]
Pressure (altimeter): 29.97 inches Hg (1015.0 mb)
Winds: from the W (270 degrees) at 9 MPH (8 knots; 4.1 m/s)
Visibility: 6 or more miles (10+ km)
Ceiling: ceiling and visibility are OK
Clouds: unknown
Weather: no significant weather observed at this time

METAR text: SBKP 181500Z 24006KT 9999 FEW030 25/13 Q1016
Conditions at: SBKP (CAMPINAS/VIRACOP, BR) observed 1500 UTC 18 April 2019
Temperature: 25.0°C (77°F)
Dewpoint: 13.0°C (55°F) [RH = 47%]
Pressure (altimeter): 30.00 inches Hg (1016.0 mb)
Winds: from the WSW (240 degrees) at 7 MPH (6 knots; 3.1 m/s)
Visibility: 6 or more miles (10+ km)
Ceiling: at least 12,000 feet AGL
Clouds: few clouds at 3000 feet AGL
Weather: no significant weather observed at this time

METAR text: SBKP 181400Z 27002KT CAVOK 24/14 Q1017
Conditions at: SBKP (CAMPINAS/VIRACOP, BR) observed 1400 UTC 18 April 2019
Temperature: 24.0°C (75°F)
Dewpoint: 14.0°C (57°F) [RH = 54%]
Pressure (altimeter): 30.03 inches Hg (1017.0 mb)
Winds: from the W (270 degrees) at 2 MPH (2 knots; 1.0 m/s)
Visibility: 6 or more miles (10+ km)
Ceiling: ceiling and visibility are OK
Clouds: unknown
Weather: no significant weather observed at this time

METAR text: SBKP 181300Z 14005KT CAVOK 23/15 Q1017
Conditions at: SBKP (CAMPINAS/VIRACOP, BR) observed 1300 UTC 18 April 2019
Temperature: 23.0°C (73°F)
Dewpoint: 15.0°C (59°F) [RH = 61%]
Pressure (altimeter): 30.03 inches Hg (1017.0 mb)
Winds: from the SE (140 degrees) at 6 MPH (5 knots; 2.6 m/s)
Visibility: 6 or more miles (10+ km)
Ceiling: ceiling and visibility are OK
Clouds: unknown
Weather: no significant weather observed at this time

Forecast for: SBKP (CAMPINAS/VIRACOP, BR)
Text: TAF SBKP 192200Z 2000/2024 12010KT CAVOK TN15/2009Z TX27/2018Z
Forecast period: 0000 to 0700 UTC 20 April 2019
Forecast type: FROM: standard forecast or significant change
Winds: from the ESE (120 degrees) at 12 MPH (10 knots; 5.1 m/s)
Visibility: 6 or more miles 10+ km)
Ceiling: unknown
Clouds: missing
Weather: no significant weather forecast for this period
Text: BECMG 2007/2009 10006KT
Forecast period: 0700 to 1200 UTC 20 April 2019
Forecast type: BECOMING: Conditions expected to become as follows by 0900 UTC 20 April 2019
Winds: from the E (100 degrees) at 7 MPH (6 knots; 3.1 m/s)
Visibility: 6 or more miles 10+ km)
Ceiling: unknown
Clouds: missing
Weather: no significant weather forecast for this period
Text: BECMG 2012/2014 34005KT
Forecast period: 1200 to 1600 UTC 20 April 2019
Forecast type: BECOMING: Conditions expected to become as follows by 1400 UTC 20 April 2019
Winds: from the NNW (340 degrees) at 6 MPH (5 knots; 2.6 m/s)
Visibility: 6 or more miles 10+ km)
Ceiling: unknown
Clouds: missing
Weather: no significant weather forecast for this period
Text: BECMG 2016/2018 26005KT
Forecast period: 1600 to 2100 UTC 20 April 2019
Forecast type: BECOMING: Conditions expected to become as follows by 1800 UTC 20 April 2019
Winds: from the W (260 degrees) at 6 MPH (5 knots; 2.6 m/s)
Visibility: 6 or more miles 10+ km)
Ceiling: unknown
Clouds: missing
Weather: no significant weather forecast for this period
Text: BECMG 2021/2023 00000KT
Forecast period: 2100 to 2300 UTC 20 April 2019
Forecast type: BECOMING: Conditions expected to become as follows by 2300 UTC 20 April 2019
Winds: calm
Visibility: 6 or more miles 10+ km)
Ceiling: unknown
Clouds: missing
Weather: no significant weather forecast for this period
Text: BECMG 2023/2024 12010KT RMK PGE
Forecast period: 2300 UTC 20 April 2019 to 0000 UTC 21 April 2019
Forecast type: BECOMING: Conditions expected to become as follows by 0000 UTC 21 April 2019
Winds: from the ESE (120 degrees) at 12 MPH (10 knots; 5.1 m/s)
Visibility: 6 or more miles 10+ km)
Ceiling: unknown
Clouds: missing
Weather: no significant weather forecast for this period